createdAt,value
2022-11-16T00:00:36.842Z,103.03
2022-11-16T00:03:04.392Z,101.50
2022-11-16T00:05:34.260Z,99.38
2022-11-16T00:08:01.223Z,93.97
2022-11-16T00:10:28.186Z,100.93
2022-11-16T00:12:55.151Z,112.63
2022-11-16T00:15:22.053Z,108.43
2022-11-16T00:17:49.187Z,105.50
2022-11-16T00:20:16.539Z,113.50
2022-11-16T00:22:43.408Z,127.43
2022-11-16T00:25:10.421Z,114.25
2022-11-16T00:27:37.729Z,112.10
2022-11-16T00:30:05.144Z,101.95
2022-11-16T00:32:32.495Z,114.90
2022-11-16T00:34:59.898Z,116.57
2022-11-16T00:37:26.852Z,113.03
2022-11-16T00:39:53.731Z,119.50
2022-11-16T00:42:20.763Z,114.70
2022-11-16T00:44:47.683Z,123.97
2022-11-16T00:47:14.682Z,114.20
2022-11-16T00:49:41.687Z,123.43
2022-11-16T00:52:08.616Z,112.65
2022-11-16T00:54:35.581Z,131.77
2022-11-16T00:57:02.634Z,122.40
2022-11-16T00:59:29.971Z,112.45
2022-11-16T01:01:58.796Z,124.05
2022-11-16T01:04:26.002Z,143.20
2022-11-16T01:06:52.993Z,120.15
2022-11-16T01:09:19.911Z,114.40
2022-11-16T01:12:06.407Z,112.93
2022-11-16T01:14:33.363Z,108.38
2022-11-16T01:17:00.362Z,109.28
2022-11-16T01:19:27.769Z,107.60
2022-11-16T01:21:54.705Z,113.13
2022-11-16T01:24:22.341Z,104.35
2022-11-16T01:26:49.385Z,108.90
2022-11-16T01:29:16.564Z,108.85
2022-11-16T01:31:49.063Z,112.32
2022-11-16T01:34:16.237Z,109.90
2022-11-16T01:36:43.165Z,104.43
2022-11-16T01:39:14.171Z,110.55
2022-11-16T01:41:46.909Z,107.97
2022-11-16T01:44:31.714Z,109.78
2022-11-16T01:47:10.624Z,145.50
2022-11-16T01:49:43.317Z,153.90
2022-11-16T01:52:13.470Z,154.27
2022-11-16T01:54:42.137Z,117.72
2022-11-16T01:57:11.317Z,119.50
2022-11-16T01:59:41.156Z,94.93
2022-11-16T02:02:14.500Z,98.47
2022-11-16T02:04:41.996Z,95.75
2022-11-16T02:07:59.278Z,94.65
2022-11-16T02:10:40.750Z,94.93
2022-11-16T02:13:19.789Z,91.95
2022-11-16T02:15:49.640Z,81.65
2022-11-16T02:18:40.531Z,84.85
2022-11-16T02:24:11.105Z,76.97
2022-11-16T02:27:00.777Z,74.80
2022-11-16T02:29:28.704Z,73.35
2022-11-16T02:32:21.697Z,70.45
2022-11-16T02:35:18.494Z,64.35
2022-11-16T02:37:48.627Z,67.95
2022-11-16T02:40:16.538Z,64.88
2022-11-16T02:42:52.629Z,66.72
2022-11-16T02:45:24.479Z,63.30
2022-11-16T02:47:52.789Z,60.88
2022-11-16T02:50:21.268Z,64.43
2022-11-16T02:52:48.212Z,66.50
2022-11-16T02:55:15.405Z,69.00
2022-11-16T02:57:55.789Z,59.95
2022-11-16T03:00:24.706Z,65.20
2022-11-16T03:02:55.087Z,69.47
2022-11-16T03:05:32.431Z,67.55
2022-11-16T03:08:14.296Z,72.22
2022-11-16T03:11:24.317Z,68.05
2022-11-16T03:14:00.171Z,73.85
2022-11-16T03:18:56.816Z,61.42
2022-11-16T03:21:49.875Z,64.53
2022-11-16T03:24:18.738Z,59.60
2022-11-16T03:27:06.269Z,68.80
2022-11-16T03:29:42.301Z,67.13
2022-11-16T03:32:29.466Z,63.70
2022-11-16T03:35:30.443Z,67.20
2022-11-16T03:37:58.154Z,65.03
2022-11-16T03:40:26.991Z,60.78
2022-11-16T03:42:54.032Z,65.70
2022-11-16T03:45:21.111Z,67.20
2022-11-16T03:47:50.028Z,59.70
2022-11-16T03:50:17.096Z,68.60
2022-11-16T03:52:44.095Z,57.58
2022-11-16T03:55:12.983Z,67.35
2022-11-16T03:57:43.187Z,66.18
2022-11-16T04:00:11.015Z,61.15
2022-11-16T04:02:42.304Z,63.88
2022-11-16T04:05:33.495Z,63.88
2022-11-16T04:08:19.279Z,63.40
2022-11-16T04:11:04.773Z,68.65
2022-11-16T04:13:52.130Z,64.25
2022-11-16T04:16:38.306Z,69.45
2022-11-16T04:19:28.015Z,62.42
2022-11-16T04:22:35.851Z,69.05
2022-11-16T04:25:10.640Z,64.95
2022-11-16T04:27:56.048Z,65.15
2022-11-16T04:30:23.473Z,68.70
2022-11-16T04:33:08.811Z,65.20
2022-11-16T04:35:54.386Z,58.92
2022-11-16T04:38:21.533Z,60.95
2022-11-16T04:40:48.497Z,62.47
2022-11-16T04:43:15.582Z,63.85
2022-11-16T04:46:02.855Z,61.17
2022-11-16T04:48:37.903Z,54.20
2022-11-16T04:51:05.018Z,64.32
2022-11-16T04:53:33.109Z,53.15
2022-11-16T04:56:12.465Z,63.70
2022-11-16T04:58:39.482Z,61.92
2022-11-16T05:01:06.599Z,69.45
2022-11-16T05:03:33.706Z,65.63
2022-11-16T05:06:01.337Z,69.85
2022-11-16T05:08:29.180Z,68.22
2022-11-16T05:10:56.743Z,58.22
2022-11-16T05:13:23.636Z,65.13
2022-11-16T05:15:52.018Z,66.35
2022-11-16T05:18:19.073Z,61.28
2022-11-16T05:21:01.523Z,71.43
2022-11-16T05:23:52.166Z,56.47
2022-11-16T05:26:21.718Z,71.50
2022-11-16T05:28:49.375Z,70.13
2022-11-16T05:31:16.402Z,70.43
2022-11-16T05:33:45.029Z,61.97
2022-11-16T05:36:13.251Z,80.03
2022-11-16T05:38:41.608Z,87.07
2022-11-16T05:41:08.623Z,69.82
2022-11-16T05:43:35.513Z,70.65
2022-11-16T05:46:14.499Z,75.38
2022-11-16T05:48:41.640Z,80.95
2022-11-16T05:51:08.725Z,66.78
2022-11-16T05:53:35.799Z,69.90
2022-11-16T05:56:03.375Z,81.00
2022-11-16T05:58:34.044Z,65.25
2022-11-16T06:01:05.599Z,76.38
2022-11-16T06:03:32.788Z,77.07
2022-11-16T06:06:00.294Z,80.35
2022-11-16T06:08:29.612Z,77.68
2022-11-16T06:11:04.117Z,79.68
2022-11-16T06:13:31.749Z,81.50
2022-11-16T06:16:00.958Z,75.10
2022-11-16T06:18:29.358Z,73.53
2022-11-16T06:20:56.350Z,72.07
2022-11-16T06:23:23.630Z,70.05
2022-11-16T06:25:56.481Z,81.57
2022-11-16T06:28:26.197Z,65.07
2022-11-16T06:30:53.905Z,77.13
2022-11-16T06:33:22.536Z,80.53
2022-11-16T06:35:50.116Z,66.18
2022-11-16T06:38:21.098Z,86.78
2022-11-16T06:40:51.401Z,69.10
2022-11-16T06:43:18.749Z,82.20
2022-11-16T06:45:52.982Z,74.65
2022-11-16T06:50:47.776Z,78.72
2022-11-16T06:53:15.892Z,89.32
2022-11-16T06:55:43.877Z,77.40
2022-11-16T06:58:13.528Z,72.13
2022-11-16T07:00:44.866Z,79.15
2022-11-16T07:03:12.236Z,86.70
2022-11-16T07:05:40.962Z,88.07
2022-11-16T07:08:11.717Z,72.65
2022-11-16T07:10:39.358Z,82.35
2022-11-16T07:13:07.477Z,82.82
2022-11-16T07:15:37.294Z,84.55
2022-11-16T07:18:06.015Z,85.15
2022-11-16T07:20:38.146Z,84.65
2022-11-16T07:23:06.363Z,80.45
2022-11-16T07:25:36.461Z,77.38
2022-11-16T07:28:06.315Z,75.10
2022-11-16T07:30:34.078Z,91.80
2022-11-16T07:33:07.060Z,82.43
2022-11-16T07:36:08.024Z,82.35
2022-11-16T07:38:35.320Z,83.13
2022-11-16T07:41:07.682Z,83.55
2022-11-16T07:43:37.697Z,81.93
2022-11-16T07:49:10.966Z,83.30
2022-11-16T07:52:10.893Z,87.53
2022-11-16T07:54:57.952Z,83.60
2022-11-16T07:57:27.289Z,86.03
2022-11-16T07:59:57.321Z,84.95
2022-11-16T08:02:26.890Z,88.32
2022-11-16T08:04:56.534Z,87.97
2022-11-16T08:07:26.910Z,85.13
2022-11-16T08:09:57.098Z,90.03
2022-11-16T08:12:24.478Z,85.28
2022-11-16T08:14:52.663Z,95.63
2022-11-16T08:17:19.857Z,84.82
2022-11-16T08:19:47.499Z,85.70
2022-11-16T08:22:16.125Z,88.20
2022-11-16T08:24:44.631Z,84.30
2022-11-16T08:27:13.120Z,85.53
2022-11-16T08:29:40.304Z,85.90
2022-11-16T08:32:09.458Z,84.80
2022-11-16T08:34:36.823Z,76.93
2022-11-16T08:37:04.750Z,77.45
2022-11-16T08:39:39.254Z,77.10
2022-11-16T08:42:06.389Z,78.75
2022-11-16T08:44:33.351Z,83.53
2022-11-16T08:47:04.521Z,78.63
2022-11-16T08:49:46.708Z,75.18
2022-11-16T08:52:16.980Z,75.32
2022-11-16T08:54:44.487Z,73.22
2022-11-16T08:57:11.709Z,70.82
2022-11-16T08:59:42.146Z,83.80
2022-11-16T09:02:13.040Z,77.25
2022-11-16T09:04:40.203Z,72.55
2022-11-16T09:07:07.214Z,84.05
2022-11-16T09:09:34.339Z,84.25
2022-11-16T09:12:01.340Z,85.28
2022-11-16T09:14:30.657Z,64.60
2022-11-16T09:16:57.711Z,68.32
2022-11-16T09:19:24.781Z,81.88
2022-11-16T09:21:51.767Z,71.10
2022-11-16T09:24:18.712Z,68.20
2022-11-16T09:26:45.738Z,65.82
2022-11-16T09:29:13.673Z,64.07
2022-11-16T09:31:40.765Z,56.55
2022-11-16T09:34:08.160Z,60.70
2022-11-16T09:36:35.490Z,67.18
2022-11-16T09:41:57.877Z,46.55
2022-11-16T09:44:37.892Z,49.50
2022-11-16T09:47:04.985Z,46.97
2022-11-16T09:49:36.049Z,44.20
2022-11-16T09:52:05.180Z,47.78
2022-11-16T09:54:35.236Z,43.97
2022-11-16T09:57:09.414Z,48.55
2022-11-16T09:59:41.796Z,50.90
2022-11-16T10:02:14.605Z,43.28
2022-11-16T10:04:58.421Z,45.53
2022-11-16T10:07:28.587Z,42.60
2022-11-16T10:09:55.718Z,42.33
2022-11-16T10:12:34.461Z,41.95
2022-11-16T10:15:20.082Z,41.05
2022-11-16T10:18:13.378Z,42.70
2022-11-16T10:20:46.560Z,39.47
2022-11-16T10:23:44.570Z,42.90
2022-11-16T10:26:28.055Z,39.28
2022-11-16T10:29:19.504Z,42.75
2022-11-16T10:31:51.539Z,42.53
2022-11-16T10:34:22.273Z,41.97
2022-11-16T10:36:49.248Z,40.67
2022-11-16T10:39:17.979Z,39.00
2022-11-16T10:41:51.052Z,41.53
2022-11-16T10:44:30.138Z,45.25
2022-11-16T10:47:38.623Z,44.67
2022-11-16T10:50:22.740Z,43.42
2022-11-16T10:52:49.679Z,43.95
2022-11-16T10:55:16.755Z,43.55
2022-11-16T10:57:57.170Z,46.33
2022-11-16T11:00:49.027Z,40.70
2022-11-16T11:03:32.024Z,40.72
2022-11-16T11:05:59.159Z,41.85
2022-11-16T11:08:34.091Z,39.22
2022-11-16T11:11:24.274Z,37.70
2022-11-16T11:31:26.020Z,40.10
2022-11-16T11:33:57.507Z,40.78
2022-11-16T11:36:33.178Z,37.40
2022-11-16T11:39:08.371Z,39.67
2022-11-16T11:41:40.485Z,41.42
2022-11-16T11:44:13.932Z,38.45
2022-11-16T11:49:34.980Z,36.13
2022-11-16T11:52:13.105Z,35.50
2022-11-16T11:54:45.928Z,36.85
2022-11-16T11:57:20.631Z,40.78
2022-11-16T11:59:48.047Z,39.28
2022-11-16T12:02:27.246Z,40.72
2022-11-16T12:05:22.286Z,37.00
2022-11-16T12:08:25.035Z,36.17
2022-11-16T12:10:55.933Z,39.40
2022-11-16T12:13:33.141Z,40.78
2022-11-16T12:16:37.812Z,36.03
2022-11-16T12:19:23.787Z,42.50
2022-11-16T12:22:11.640Z,39.50
2022-11-16T12:24:56.729Z,39.38
2022-11-16T12:27:37.190Z,44.58
2022-11-16T12:30:11.542Z,48.75
2022-11-16T12:33:22.440Z,53.58
2022-11-16T12:35:54.707Z,53.03
2022-11-16T12:38:55.057Z,55.83
2022-11-16T12:41:49.100Z,57.80
2022-11-16T12:44:34.666Z,63.20
2022-11-16T12:47:27.212Z,61.60
2022-11-16T12:50:04.327Z,60.35
2022-11-16T12:53:10.847Z,53.97
2022-11-16T12:55:53.721Z,48.67
2022-11-16T12:58:59.466Z,50.17
2022-11-16T13:01:41.774Z,45.80
2022-11-16T13:04:35.092Z,38.03
2022-11-16T13:07:11.589Z,38.40
2022-11-16T13:09:45.480Z,37.72
2022-11-16T13:12:15.425Z,34.78
2022-11-16T13:14:44.809Z,33.42
2022-11-16T13:17:20.953Z,40.55
2022-11-16T13:20:18.268Z,33.58
2022-11-16T13:22:51.586Z,36.60
2022-11-16T13:25:27.130Z,32.77
2022-11-16T13:27:56.926Z,38.25
2022-11-16T13:30:26.129Z,38.08
2022-11-16T13:33:11.090Z,39.78
2022-11-16T13:35:38.232Z,39.45
2022-11-16T13:38:08.947Z,40.80
2022-11-16T13:40:35.987Z,38.28
2022-11-16T13:43:08.109Z,45.72
2022-11-16T13:45:50.245Z,39.47
2022-11-16T13:48:35.371Z,44.03
2022-11-16T13:51:16.110Z,48.92
2022-11-16T13:54:43.049Z,44.33
2022-11-16T13:56:50.230Z,80.45
2022-11-16T13:59:17.261Z,41.65
2022-11-16T14:01:58.563Z,40.67
2022-11-16T14:04:40.019Z,39.78
2022-11-16T14:07:40.557Z,45.25
2022-11-16T14:10:08.134Z,42.90
2022-11-16T14:12:38.312Z,49.03
2022-11-16T14:15:25.270Z,47.45
2022-11-16T14:18:09.260Z,49.05
2022-11-16T14:20:56.043Z,49.70
2022-11-16T14:23:44.655Z,61.83
2022-11-16T14:26:20.397Z,64.63
2022-11-16T14:29:26.969Z,64.70
2022-11-16T14:31:56.755Z,65.05
2022-11-16T14:34:39.456Z,60.78
2022-11-16T14:37:06.541Z,64.40
2022-11-16T14:39:43.511Z,73.25
2022-11-16T14:42:27.402Z,69.40
2022-11-16T14:45:07.742Z,73.40
2022-11-16T14:47:36.097Z,82.15
2022-11-16T14:50:03.611Z,75.75
2022-11-16T14:52:47.570Z,76.20
2022-11-16T14:55:22.572Z,65.88
2022-11-16T14:57:49.632Z,67.18
2022-11-16T15:00:21.277Z,70.38
2022-11-16T15:02:57.676Z,84.00
2022-11-16T15:05:29.694Z,74.25
2022-11-16T15:07:57.755Z,87.78
2022-11-16T15:10:26.457Z,80.40
2022-11-16T15:12:54.258Z,78.13
2022-11-16T15:15:26.809Z,75.38
2022-11-16T15:18:00.035Z,81.10
2022-11-16T15:20:28.927Z,78.15
2022-11-16T15:22:58.105Z,80.55
2022-11-16T15:25:29.022Z,92.72
2022-11-16T15:27:56.894Z,81.95
2022-11-16T15:30:26.438Z,94.28
2022-11-16T15:32:53.579Z,86.82
2022-11-16T15:35:24.672Z,95.32
2022-11-16T15:38:10.477Z,89.03
2022-11-16T15:40:37.425Z,91.15
2022-11-16T15:43:05.236Z,91.97
2022-11-16T15:45:32.429Z,94.45
2022-11-16T15:48:00.561Z,87.18
2022-11-16T15:50:30.453Z,100.70
2022-11-16T15:52:59.787Z,101.65
2022-11-16T15:55:35.869Z,98.00
2022-11-16T15:58:14.802Z,103.47
2022-11-16T16:00:41.839Z,106.07
2022-11-16T16:03:22.655Z,105.53
2022-11-16T16:05:49.669Z,107.68
2022-11-16T16:08:35.563Z,109.05
2022-11-16T16:11:04.105Z,118.30
2022-11-16T16:13:41.966Z,105.13
2022-11-16T16:16:30.668Z,111.32
2022-11-16T16:19:03.644Z,105.63
2022-11-16T16:21:44.408Z,105.50
2022-11-16T16:24:30.829Z,108.22
2022-11-16T16:26:57.824Z,104.80
2022-11-16T16:29:27.969Z,110.10
2022-11-16T16:31:55.718Z,100.45
2022-11-16T16:34:22.643Z,100.75
2022-11-16T16:36:49.602Z,97.60
2022-11-16T16:39:16.860Z,100.07
2022-11-16T16:41:44.089Z,85.80
2022-11-16T16:44:15.047Z,94.07
2022-11-16T16:46:42.055Z,96.30
2022-11-16T16:49:09.043Z,90.75
2022-11-16T16:51:36.235Z,89.60
2022-11-16T16:54:03.186Z,97.72
2022-11-16T16:56:30.197Z,90.55
2022-11-16T16:58:57.164Z,98.60
2022-11-16T17:01:24.135Z,90.25
2022-11-16T17:03:51.156Z,82.15
2022-11-16T17:06:18.948Z,80.05
2022-11-16T17:08:45.989Z,71.32
2022-11-16T17:11:14.894Z,59.47
2022-11-16T17:13:42.425Z,67.55
2022-11-16T17:16:09.406Z,72.25
2022-11-16T17:18:36.402Z,69.30
2022-11-16T17:21:04.914Z,62.65
2022-11-16T17:23:32.218Z,60.88
2022-11-16T17:25:59.511Z,58.70
2022-11-16T17:28:26.466Z,52.85
2022-11-16T17:30:53.466Z,55.15
2022-11-16T17:33:20.462Z,51.40
2022-11-16T17:35:56.149Z,49.08
2022-11-16T17:38:23.956Z,47.20
2022-11-16T17:40:50.896Z,42.47
2022-11-16T17:43:17.954Z,47.45
2022-11-16T17:45:44.875Z,45.83
2022-11-16T17:48:11.964Z,42.83
2022-11-16T17:50:39.895Z,47.70
2022-11-16T17:53:06.811Z,42.10
2022-11-16T17:55:33.894Z,38.25
2022-11-16T17:58:02.705Z,36.28
2022-11-16T18:00:29.616Z,39.50
2022-11-16T18:02:56.565Z,37.97
2022-11-16T18:05:23.556Z,37.67
2022-11-16T18:07:50.462Z,37.85
2022-11-16T18:10:20.029Z,35.75
2022-11-16T18:12:47.000Z,39.08
2022-11-16T18:15:27.936Z,30.70
2022-11-16T18:17:56.842Z,38.72
2022-11-16T18:20:24.340Z,33.25
2022-11-16T18:22:51.279Z,32.03
2022-11-16T18:25:20.897Z,36.47
2022-11-16T18:27:53.853Z,39.75
2022-11-16T18:30:21.533Z,35.10
2022-11-16T18:32:48.806Z,30.83
2022-11-16T18:35:15.979Z,33.00
2022-11-16T18:37:42.995Z,33.42
2022-11-16T18:40:12.021Z,32.78
2022-11-16T18:42:39.960Z,30.30
2022-11-16T18:45:07.951Z,31.00
2022-11-16T18:47:34.937Z,28.98
2022-11-16T18:50:02.028Z,28.10
2022-11-16T18:52:29.081Z,29.88
2022-11-16T18:54:56.014Z,28.67
2022-11-16T18:57:22.993Z,25.30
2022-11-16T18:59:50.094Z,26.52
2022-11-16T19:02:17.072Z,23.67
2022-11-16T19:04:44.012Z,25.20
2022-11-16T19:07:11.127Z,24.92
2022-11-16T19:09:38.199Z,22.35
2022-11-16T19:12:05.304Z,26.27
2022-11-16T19:14:32.229Z,24.08
2022-11-16T19:16:59.328Z,23.75
2022-11-16T19:19:29.199Z,22.90
2022-11-16T19:21:57.370Z,25.35
2022-11-16T19:24:24.319Z,22.30
2022-11-16T19:26:53.788Z,24.23
2022-11-16T19:29:21.041Z,21.52
2022-11-16T19:31:51.067Z,22.17
2022-11-16T19:34:18.079Z,27.63
2022-11-16T19:36:45.088Z,26.15
2022-11-16T19:39:12.019Z,25.60
2022-11-16T19:41:45.300Z,25.75
2022-11-16T19:44:13.495Z,28.13
2022-11-16T19:46:40.451Z,26.88
2022-11-16T19:49:09.271Z,24.63
2022-11-16T19:51:36.445Z,26.80
2022-11-16T19:54:03.611Z,28.02
2022-11-16T19:56:30.653Z,25.90
2022-11-16T19:58:57.717Z,30.60
2022-11-16T20:01:27.927Z,29.77
2022-11-16T20:03:56.362Z,29.52
2022-11-16T20:06:24.997Z,29.30
2022-11-16T20:08:54.000Z,31.08
2022-11-16T20:11:25.740Z,32.10
2022-11-16T20:13:53.757Z,33.65
2022-11-16T20:16:24.579Z,33.15
2022-11-16T20:18:51.868Z,27.45
2022-11-16T20:21:19.912Z,29.67
2022-11-16T20:23:46.927Z,28.73
2022-11-16T20:26:14.114Z,29.27
2022-11-16T20:28:42.284Z,35.35
2022-11-16T20:31:11.378Z,30.10
2022-11-16T20:33:38.678Z,31.30
2022-11-16T20:36:11.581Z,32.03
2022-11-16T20:38:39.294Z,32.72
2022-11-16T20:41:12.960Z,31.20
2022-11-16T20:43:40.536Z,31.77
2022-11-16T20:46:11.144Z,34.47
2022-11-16T20:48:38.847Z,32.42
2022-11-16T20:51:06.060Z,24.50
2022-11-16T20:53:33.571Z,19.73
2022-11-16T20:56:03.912Z,19.98
2022-11-16T20:58:31.588Z,26.75
2022-11-16T21:01:02.720Z,15.13
2022-11-16T21:03:29.797Z,18.60
2022-11-16T21:05:56.865Z,21.13
2022-11-16T21:08:24.995Z,19.33
2022-11-16T21:10:52.370Z,17.75
2022-11-16T21:13:38.516Z,19.35
2022-11-16T21:16:07.700Z,20.52
2022-11-16T21:18:34.849Z,20.08
2022-11-16T21:21:02.921Z,17.20
2022-11-16T21:23:30.925Z,17.92
2022-11-16T21:26:05.232Z,19.08
2022-11-16T21:31:04.209Z,18.17
2022-11-16T21:33:31.881Z,20.92
2022-11-16T21:36:09.950Z,16.90
2022-11-16T21:38:37.230Z,17.35
2022-11-16T21:41:06.973Z,18.30
2022-11-16T21:43:36.318Z,18.35
2022-11-16T21:46:05.033Z,16.95
2022-11-16T21:48:36.290Z,19.23
2022-11-16T21:51:11.250Z,21.42
2022-11-16T21:53:38.350Z,17.30
2022-11-16T21:56:06.437Z,14.80
2022-11-16T21:58:33.562Z,15.63
2022-11-16T22:01:01.524Z,12.18
2022-11-16T22:03:30.226Z,14.45
2022-11-16T22:06:20.098Z,18.88
2022-11-16T22:08:47.453Z,17.90
2022-11-16T22:11:14.653Z,18.98
2022-11-16T22:13:41.692Z,18.00
2022-11-16T22:16:10.378Z,21.23
2022-11-16T22:18:37.454Z,19.38
2022-11-16T22:21:04.859Z,19.25
2022-11-16T22:23:31.955Z,18.95
2022-11-16T22:26:08.703Z,19.05
2022-11-16T22:28:37.532Z,16.08
2022-11-16T22:31:05.326Z,20.15
2022-11-16T22:33:32.740Z,17.80
2022-11-16T22:36:00.230Z,16.88
2022-11-16T22:38:27.285Z,21.45
2022-11-16T22:40:58.513Z,22.13
2022-11-16T22:43:27.222Z,19.35
2022-11-16T22:45:59.254Z,20.80
2022-11-16T22:48:36.853Z,17.42
2022-11-16T22:51:29.395Z,19.05
2022-11-16T22:53:57.732Z,18.92
2022-11-16T22:56:24.845Z,20.40
2022-11-16T22:58:51.918Z,19.95
2022-11-16T23:01:19.055Z,17.35
2022-11-16T23:03:46.239Z,18.45
2022-11-16T23:07:04.892Z,19.65
2022-11-16T23:09:44.585Z,15.82
2022-11-16T23:13:52.807Z,17.92
2022-11-16T23:23:24.467Z,18.10
2022-11-16T23:26:55.631Z,14.88
2022-11-16T23:46:42.224Z,13.80
2022-11-16T23:49:09.466Z,13.32
2022-11-16T23:51:38.974Z,13.10
2022-11-16T23:54:07.455Z,12.63
2022-11-16T23:56:34.995Z,11.60
2022-11-16T23:59:02.432Z,13.80
